Terminal Aerodrome Forecast
Issued by NWS Albany, NY

Home | Current Version | Previous Version | Text Only | Print | Product List | Glossary On
Versions: 1 2 3 4 5 6 7 8 9 10 11 12 13 14 15 16 17 18 19 20
000
FTUS41 KALY 011731
TAFALB
TAF
KALB 011731Z 0118/0218 03005KT P6SM VCSH SCT010 OVC025
      TEMPO 0120/0124 BKN010
     FM020000 03003KT 6SM BR VCSH BKN010 OVC020
     FM020700 VRB02KT 3SM -DZ BR VCSH BKN005 OVC010
     FM021300 14004KT 6SM BR VCSH OVC010=

USA.gov is the U.S. government's official web portal to all federal, state and local government web resources and services.